Terminal Aerodrome Forecast
Issued by NWS

Home | Current Version | Previous Version | Text Only | Print | Product List | Glossary On
Versions: 1 2 3 4 5 6 7 8 9 10 11 12 13 14 15 16 17 18 19 20 21 22 23 24 25 26 27 28 29 30 31 32 33 34 35
000
FTAK31 PAFA 261423 AAB
TAFAFA
TAF AMD
PAFA 261423Z 2614/2718 00000KT 1SM -SN BR OVC015
      TEMPO 2614/2617 3SM -SN BR SCT015 OVC025
     FM261800 VRB03KT P6SM BKN025 BKN050
     FM270400 VRB04KT 2SM -SN BR OVC020=

USA.gov is the U.S. government's official web portal to all federal, state and local government web resources and services.